createdAt,value
2022-10-11T00:00:58.239Z,12.29
2022-10-11T00:03:34.846Z,13.21
2022-10-11T00:06:03.941Z,13.94
2022-10-11T00:08:33.104Z,14.44
2022-10-11T00:11:03.421Z,14.40
2022-10-11T00:13:31.786Z,13.15
2022-10-11T00:15:59.705Z,12.31
2022-10-11T00:18:27.573Z,13.29
2022-10-11T00:21:10.787Z,14.15
2022-10-11T00:23:39.054Z,14.61
2022-10-11T00:26:09.324Z,14.96
2022-10-11T00:28:38.068Z,14.97
2022-10-11T00:31:11.138Z,13.75
2022-10-11T00:33:39.740Z,12.54
2022-10-11T00:36:09.254Z,12.12
2022-10-11T00:38:37.578Z,13.16
2022-10-11T00:41:05.626Z,14.17
2022-10-11T00:43:34.177Z,14.63
2022-10-11T00:46:06.847Z,14.85
2022-10-11T00:48:45.897Z,15.24
2022-10-11T00:51:21.330Z,15.49
2022-10-11T00:53:51.165Z,15.04
2022-10-11T00:56:32.798Z,13.77
2022-10-11T00:59:04.916Z,12.99
2022-10-11T01:01:33.116Z,14.03
2022-10-11T01:04:01.995Z,14.73
2022-10-11T01:06:30.001Z,15.16
2022-10-11T01:08:57.914Z,15.22
2022-10-11T01:11:28.985Z,14.01
2022-10-11T01:14:15.917Z,12.83
2022-10-11T01:16:46.836Z,12.55
2022-10-11T01:19:52.394Z,13.79
2022-10-11T01:22:29.338Z,14.84
2022-10-11T01:25:25.056Z,15.31
2022-10-11T01:27:56.212Z,15.22
2022-10-11T01:30:28.956Z,13.91
2022-10-11T01:33:22.885Z,12.78
2022-10-11T01:36:03.748Z,12.65
2022-10-11T01:38:34.689Z,14.10
2022-10-11T01:41:08.267Z,14.81
2022-10-11T01:43:38.625Z,15.38
2022-10-11T01:46:08.414Z,15.41
2022-10-11T01:49:03.126Z,14.22
2022-10-11T01:51:47.604Z,12.97
2022-10-11T01:54:24.750Z,12.83
2022-10-11T01:57:10.731Z,14.41
2022-10-11T01:59:44.542Z,15.65
2022-10-11T02:02:49.926Z,16.34
2022-10-11T02:05:30.673Z,16.26
2022-10-11T02:08:26.778Z,14.89
2022-10-11T02:11:06.851Z,13.76
2022-10-11T02:13:46.233Z,13.60
2022-10-11T02:16:20.631Z,15.15
2022-10-11T02:18:52.990Z,16.38
2022-10-11T02:21:23.281Z,16.58
2022-10-11T02:24:00.520Z,15.42
2022-10-11T02:26:31.489Z,14.26
2022-10-11T02:29:04.689Z,13.45
2022-10-11T02:31:34.791Z,13.47
2022-10-11T02:34:18.656Z,15.02
2022-10-11T02:37:02.439Z,16.35
2022-10-11T02:39:39.538Z,16.44
2022-10-11T02:42:14.232Z,15.15
2022-10-11T02:44:46.616Z,14.10
2022-10-11T02:47:14.871Z,13.37
2022-10-11T02:49:42.733Z,13.23
2022-10-11T02:52:10.541Z,14.72
2022-10-11T02:54:38.382Z,16.07
2022-10-11T02:57:06.228Z,16.32
2022-10-11T02:59:34.067Z,15.17
2022-10-11T03:02:01.926Z,14.09
2022-10-11T03:04:29.765Z,13.34
2022-10-11T03:06:57.547Z,13.25
2022-10-11T03:09:25.585Z,14.63
2022-10-11T03:11:53.403Z,15.76
2022-10-11T03:14:21.199Z,16.04
2022-10-11T03:16:51.573Z,14.91
2022-10-11T03:19:19.614Z,13.77
2022-10-11T03:21:47.536Z,13.02
2022-10-11T03:24:15.483Z,12.91
2022-10-11T03:26:43.335Z,14.40
2022-10-11T03:29:11.209Z,15.66
2022-10-11T03:31:39.047Z,15.99
2022-10-11T03:34:06.928Z,14.95
2022-10-11T03:36:34.740Z,13.88
2022-10-11T03:39:03.862Z,13.11
2022-10-11T03:41:31.891Z,12.98
2022-10-11T03:43:59.723Z,14.34
2022-10-11T03:46:27.609Z,15.68
2022-10-11T03:48:55.441Z,16.10
2022-10-11T03:51:23.301Z,15.06
2022-10-11T03:53:51.045Z,14.01
2022-10-11T03:56:18.901Z,13.25
2022-10-11T03:58:46.756Z,13.09
2022-10-11T04:01:14.749Z,14.49
2022-10-11T04:03:42.878Z,15.57
2022-10-11T04:06:12.190Z,14.84
2022-10-11T04:08:39.996Z,13.86
2022-10-11T04:11:07.941Z,13.17
2022-10-11T04:13:36.422Z,13.09
2022-10-11T04:16:04.910Z,14.59
2022-10-11T04:18:32.873Z,15.87
2022-10-11T04:21:00.677Z,16.27
2022-10-11T04:23:30.955Z,15.17
2022-10-11T04:25:58.834Z,14.07
2022-10-11T04:28:26.774Z,13.28
2022-10-11T04:30:54.660Z,13.06
2022-10-11T04:33:22.494Z,14.37
2022-10-11T04:35:54.904Z,15.59
2022-10-11T04:38:23.689Z,16.00
2022-10-11T04:40:51.556Z,14.93
2022-10-11T04:43:19.561Z,13.85
2022-10-11T04:45:47.373Z,13.10
2022-10-11T04:48:15.567Z,12.97
2022-10-11T04:50:45.409Z,14.40
2022-10-11T04:53:17.367Z,15.72
2022-10-11T04:55:45.471Z,16.09
2022-10-11T04:58:13.314Z,15.10
2022-10-11T05:00:42.649Z,14.10
2022-10-11T05:03:10.554Z,13.37
2022-10-11T05:05:38.846Z,13.24
2022-10-11T05:08:06.761Z,14.61
2022-10-11T05:10:37.105Z,15.94
2022-10-11T05:13:05.016Z,16.26
2022-10-11T05:15:33.001Z,15.22
2022-10-11T05:18:00.947Z,14.15
2022-10-11T05:20:32.005Z,13.39
2022-10-11T05:23:00.124Z,13.26
2022-10-11T05:25:28.133Z,14.58
2022-10-11T05:27:56.198Z,15.29
2022-10-11T05:30:23.985Z,14.59
2022-10-11T05:32:51.838Z,13.69
2022-10-11T05:35:19.639Z,13.32
2022-10-11T05:37:47.413Z,14.51
2022-10-11T05:40:15.423Z,15.86
2022-10-11T05:42:43.224Z,16.30
2022-10-11T05:45:11.025Z,15.43
2022-10-11T05:47:38.820Z,14.47
2022-10-11T05:50:07.206Z,13.78
2022-10-11T05:52:35.051Z,13.34
2022-10-11T05:55:03.453Z,13.40
2022-10-11T05:57:31.288Z,14.96
2022-10-11T05:59:59.192Z,16.34
2022-10-11T06:02:27.042Z,16.85
2022-10-11T06:04:54.838Z,15.91
2022-10-11T06:07:22.709Z,14.94
2022-10-11T06:09:51.643Z,14.23
2022-10-11T06:12:19.651Z,13.70
2022-10-11T06:14:47.902Z,13.71
2022-10-11T06:17:15.795Z,15.26
2022-10-11T06:19:43.626Z,16.47
2022-10-11T06:22:12.320Z,16.38
2022-10-11T06:24:40.103Z,15.12
2022-10-11T06:27:08.505Z,14.19
2022-10-11T06:29:36.803Z,14.92
2022-10-11T06:32:05.517Z,16.04
2022-10-11T06:34:33.426Z,15.87
2022-10-11T06:37:01.257Z,14.75
2022-10-11T06:39:29.203Z,14.20
2022-10-11T06:41:57.166Z,15.34
2022-10-11T06:44:26.512Z,16.29
2022-10-11T06:46:54.413Z,16.85
2022-10-11T06:49:23.498Z,16.97
2022-10-11T06:51:51.600Z,15.88
2022-10-11T06:54:19.449Z,14.78
2022-10-11T06:57:14.078Z,14.41
2022-10-11T06:59:41.951Z,15.96
2022-10-11T07:02:10.377Z,16.71
2022-10-11T07:04:38.252Z,16.76
2022-10-11T07:07:06.129Z,15.72
2022-10-11T07:09:34.502Z,14.71
2022-10-11T07:12:02.305Z,14.95
2022-10-11T07:14:30.129Z,16.21
2022-10-11T07:16:58.170Z,17.15
2022-10-11T07:19:26.023Z,17.36
2022-10-11T07:21:53.827Z,16.27
2022-10-11T07:24:21.724Z,15.23
2022-10-11T07:26:49.558Z,14.98
2022-10-11T07:29:17.479Z,16.39
2022-10-11T07:31:45.404Z,17.62
2022-10-11T07:34:13.307Z,17.92
2022-10-11T07:36:41.129Z,16.85
2022-10-11T07:39:09.390Z,15.80
2022-10-11T07:41:44.575Z,15.46
2022-10-11T07:44:14.799Z,16.78
2022-10-11T07:46:42.670Z,17.80
2022-10-11T07:49:10.442Z,18.28
2022-10-11T07:51:38.261Z,17.26
2022-10-11T07:54:07.430Z,15.99
2022-10-11T07:56:36.992Z,15.47
2022-10-11T07:59:04.956Z,16.50
2022-10-11T08:01:33.451Z,17.48
2022-10-11T08:04:01.367Z,17.45
2022-10-11T08:06:32.616Z,16.46
2022-10-11T08:09:01.569Z,15.53
2022-10-11T08:11:32.814Z,15.37
2022-10-11T08:14:02.014Z,16.88
2022-10-11T08:16:29.984Z,17.92
2022-10-11T08:18:57.858Z,17.12
2022-10-11T08:21:26.944Z,16.12
2022-10-11T08:23:55.243Z,16.55
2022-10-11T08:26:24.538Z,18.08
2022-10-11T08:28:52.498Z,18.77
2022-10-11T08:31:20.873Z,17.86
2022-10-11T08:33:48.697Z,16.94
2022-10-11T08:36:16.519Z,17.01
2022-10-11T08:38:44.436Z,18.42
2022-10-11T08:41:15.226Z,19.00
2022-10-11T08:43:58.063Z,17.91
2022-10-11T08:46:33.670Z,16.84
2022-10-11T08:49:02.666Z,16.59
2022-10-11T08:51:43.419Z,17.97
2022-10-11T08:54:23.019Z,19.21
2022-10-11T08:56:51.353Z,18.54
2022-10-11T08:59:46.756Z,17.45
2022-10-11T09:02:14.514Z,17.28
2022-10-11T09:04:42.327Z,18.77
2022-10-11T09:07:33.658Z,19.49
2022-10-11T09:10:07.741Z,18.49
2022-10-11T09:12:50.364Z,17.56
2022-10-11T09:15:25.280Z,16.99
2022-10-11T09:18:25.915Z,17.03
2022-10-11T09:20:53.679Z,18.47
2022-10-11T09:23:40.151Z,19.42
2022-10-11T09:26:23.087Z,18.38
2022-10-11T09:29:22.518Z,17.35
2022-10-11T09:31:58.078Z,17.71
2022-10-11T09:34:35.413Z,18.83
2022-10-11T09:37:32.962Z,18.70
2022-10-11T09:40:22.102Z,17.34
2022-10-11T09:42:49.962Z,16.78
2022-10-11T09:45:21.420Z,17.90
2022-10-11T09:47:51.209Z,18.38
2022-10-11T09:50:23.347Z,17.77
2022-10-11T09:52:56.654Z,17.13
2022-10-11T09:55:39.144Z,16.85
2022-10-11T09:58:25.754Z,18.27
2022-10-11T10:01:02.770Z,18.29
2022-10-11T10:03:40.166Z,17.19
2022-10-11T10:06:17.192Z,17.11
2022-10-11T10:08:47.265Z,18.14
2022-10-11T10:11:15.347Z,18.00
2022-10-11T10:13:43.217Z,17.08
2022-10-11T10:16:22.274Z,16.70
2022-10-11T10:19:05.007Z,17.90
2022-10-11T10:21:36.000Z,17.79
2022-10-11T10:24:08.786Z,16.71
2022-10-11T10:26:36.628Z,16.50
2022-10-11T10:29:24.769Z,18.00
2022-10-11T10:35:23.290Z,17.42
2022-10-11T10:38:05.766Z,16.56
2022-10-11T10:40:43.799Z,16.57
2022-10-11T10:43:21.321Z,17.89
2022-10-11T10:46:26.911Z,18.50
2022-10-11T10:49:48.326Z,17.21
2022-10-11T10:52:20.038Z,16.33
2022-10-11T10:54:51.877Z,17.17
2022-10-11T10:57:33.628Z,18.08
2022-10-11T11:00:10.841Z,17.31
2022-10-11T11:02:41.261Z,16.38
2022-10-11T11:05:28.363Z,15.98
2022-10-11T11:08:03.936Z,17.17
2022-10-11T11:11:18.257Z,18.33
2022-10-11T11:13:58.200Z,17.54
2022-10-11T11:16:32.239Z,16.25
2022-10-11T11:19:02.775Z,17.07
2022-10-11T11:21:48.252Z,18.18
2022-10-11T11:25:17.828Z,17.37
2022-10-11T11:28:03.581Z,16.02
2022-10-11T11:30:49.061Z,16.99
2022-10-11T11:33:35.740Z,18.36
2022-10-11T11:36:10.234Z,18.20
2022-10-11T11:38:49.917Z,16.83
2022-10-11T11:41:23.105Z,16.41
2022-10-11T11:43:53.796Z,17.97
2022-10-11T11:46:35.998Z,17.90
2022-10-11T11:49:13.524Z,16.42
2022-10-11T11:51:46.343Z,16.79
2022-10-11T11:54:17.041Z,17.88
2022-10-11T11:57:00.016Z,17.10
2022-10-11T11:59:33.980Z,16.18
2022-10-11T12:02:22.262Z,16.57
2022-10-11T12:04:51.296Z,17.38
2022-10-11T12:07:22.990Z,17.15
2022-10-11T12:10:22.558Z,16.13
2022-10-11T12:13:20.057Z,15.83
2022-10-11T12:16:06.209Z,17.08
2022-10-11T12:18:41.896Z,17.66
2022-10-11T12:21:26.412Z,16.73
2022-10-11T12:23:56.749Z,15.74
2022-10-11T12:30:47.204Z,17.49
2022-10-11T12:33:22.607Z,17.14
2022-10-11T12:35:56.362Z,16.04
2022-10-11T12:38:28.579Z,15.38
2022-10-11T12:41:00.614Z,15.54
2022-10-11T12:43:48.431Z,17.17
2022-10-11T12:46:28.499Z,18.18
2022-10-11T12:49:15.141Z,17.47
2022-10-11T12:51:51.189Z,16.74
2022-10-11T12:54:44.164Z,16.58
2022-10-11T12:57:45.902Z,16.48
2022-10-11T13:00:22.065Z,16.39
2022-10-11T13:02:50.293Z,16.27
2022-10-11T13:05:25.845Z,16.17
2022-10-11T13:07:57.792Z,16.14
2022-10-11T13:10:36.184Z,16.10
2022-10-11T13:13:10.099Z,16.08
2022-10-11T13:15:38.080Z,16.18
2022-10-11T13:18:05.978Z,16.27
2022-10-11T13:20:37.622Z,16.43
2022-10-11T13:23:27.922Z,16.83
2022-10-11T13:25:56.727Z,17.27
2022-10-11T13:28:24.687Z,17.48
2022-10-11T13:30:56.075Z,17.49
2022-10-11T13:33:37.603Z,17.36
2022-10-11T13:36:09.517Z,17.23
2022-10-11T13:38:37.627Z,17.09
2022-10-11T13:41:10.384Z,16.83
2022-10-11T13:43:40.830Z,16.43
2022-10-11T13:46:19.457Z,16.12
2022-10-11T13:49:01.165Z,15.83
2022-10-11T13:51:37.670Z,15.64
2022-10-11T13:54:11.761Z,15.48
2022-10-11T13:56:46.276Z,15.30
2022-10-11T13:59:32.348Z,15.23
2022-10-11T14:02:04.381Z,15.34
2022-10-11T14:04:40.849Z,15.58
2022-10-11T14:07:26.512Z,15.94
2022-10-11T14:09:55.946Z,16.42
2022-10-11T14:12:32.304Z,16.80
2022-10-11T14:15:01.702Z,16.93
2022-10-11T14:17:47.801Z,16.92
2022-10-11T14:20:29.557Z,16.91
2022-10-11T14:23:00.257Z,17.10
2022-10-11T14:25:28.499Z,17.32
2022-10-11T14:27:56.992Z,17.35
2022-10-11T14:30:27.636Z,17.37
2022-10-11T14:33:01.144Z,17.30
2022-10-11T14:35:32.243Z,17.24
2022-10-11T14:38:00.786Z,17.32
2022-10-11T14:40:31.159Z,17.48
2022-10-11T14:42:59.143Z,17.57
2022-10-11T14:45:28.231Z,17.66
2022-10-11T14:47:56.554Z,17.87
2022-10-11T14:50:39.297Z,18.12
2022-10-11T14:53:09.005Z,18.51
2022-10-11T14:55:38.622Z,18.88
2022-10-11T14:58:10.159Z,19.12
2022-10-11T15:00:42.653Z,19.38
2022-10-11T15:03:10.640Z,19.34
2022-10-11T15:05:39.067Z,19.05
2022-10-11T15:08:07.355Z,18.68
2022-10-11T15:10:40.737Z,18.32
2022-10-11T15:13:09.155Z,17.98
2022-10-11T15:15:40.930Z,17.66
2022-10-11T15:18:18.775Z,17.33
2022-10-11T15:20:46.827Z,17.00
2022-10-11T15:23:14.691Z,16.73
2022-10-11T15:25:42.948Z,16.48
2022-10-11T15:28:22.558Z,16.24
2022-10-11T15:30:50.574Z,16.18
2022-10-11T15:33:18.553Z,16.44
2022-10-11T15:35:47.348Z,16.84
2022-10-11T15:38:24.149Z,17.21
2022-10-11T15:40:53.064Z,17.54
2022-10-11T15:43:24.784Z,17.73
2022-10-11T15:45:54.911Z,17.78
2022-10-11T15:48:26.491Z,17.67
2022-10-11T15:50:55.008Z,17.43
2022-10-11T15:53:28.551Z,17.05
2022-10-11T15:56:03.549Z,16.53
2022-10-11T15:58:34.858Z,15.91
2022-10-11T16:01:14.866Z,15.50
2022-10-11T16:03:43.765Z,16.75
2022-10-11T16:06:12.408Z,17.79
2022-10-11T16:08:41.861Z,17.79
2022-10-11T16:11:10.997Z,16.81
2022-10-11T16:13:39.450Z,15.82
2022-10-11T16:16:09.004Z,15.09
2022-10-11T16:18:37.984Z,14.57
2022-10-11T16:21:10.752Z,14.51
2022-10-11T16:23:38.948Z,15.95
2022-10-11T16:26:13.457Z,17.11
2022-10-11T16:28:42.167Z,17.25
2022-10-11T16:31:13.399Z,16.00
2022-10-11T16:33:47.864Z,14.73
2022-10-11T16:36:32.079Z,13.76
2022-10-11T16:39:02.609Z,13.53
2022-10-11T16:41:30.512Z,14.80
2022-10-11T16:43:58.412Z,15.69
2022-10-11T16:46:26.318Z,15.90
2022-10-11T16:48:58.539Z,14.74
2022-10-11T16:51:26.400Z,13.52
2022-10-11T16:53:54.285Z,12.67
2022-10-11T16:56:24.227Z,12.39
2022-10-11T16:58:56.138Z,13.65
2022-10-11T17:01:24.171Z,14.68
2022-10-11T17:03:52.981Z,14.88
2022-10-11T17:06:20.865Z,13.83
2022-10-11T17:08:48.802Z,12.72
2022-10-11T17:11:17.895Z,12.27
2022-10-11T17:13:46.626Z,13.59
2022-10-11T17:16:15.059Z,14.80
2022-10-11T17:18:43.337Z,15.01
2022-10-11T17:21:16.273Z,13.70
2022-10-11T17:23:44.447Z,12.37
2022-10-11T17:26:19.670Z,11.84
2022-10-11T17:28:47.791Z,13.06
2022-10-11T17:31:15.982Z,14.11
2022-10-11T17:33:44.052Z,14.35
2022-10-11T17:36:23.221Z,13.15
2022-10-11T17:38:52.885Z,11.79
2022-10-11T17:41:28.144Z,11.38
2022-10-11T17:44:00.054Z,12.71
2022-10-11T17:46:32.953Z,13.72
2022-10-11T17:49:05.054Z,14.02
2022-10-11T17:51:34.586Z,12.80
2022-10-11T17:54:04.448Z,11.56
2022-10-11T17:56:37.756Z,11.10
2022-10-11T17:59:06.798Z,12.40
2022-10-11T18:01:35.429Z,13.52
2022-10-11T18:04:06.661Z,13.86
2022-10-11T18:06:40.055Z,12.75
2022-10-11T18:09:08.747Z,11.64
2022-10-11T18:11:37.863Z,11.27
2022-10-11T18:14:05.906Z,12.61
2022-10-11T18:16:36.755Z,13.75
2022-10-11T18:19:07.983Z,13.99
2022-10-11T18:21:37.797Z,12.80
2022-10-11T18:24:14.300Z,11.61
2022-10-11T18:26:47.538Z,10.75
2022-10-11T18:29:16.943Z,10.65
2022-10-11T18:31:46.790Z,12.12
2022-10-11T18:34:16.625Z,13.29
2022-10-11T18:36:45.231Z,13.63
2022-10-11T18:39:15.050Z,12.52
2022-10-11T18:41:45.039Z,11.34
2022-10-11T18:44:16.235Z,10.47
2022-10-11T18:46:46.342Z,10.36
2022-10-11T18:49:14.980Z,11.70
2022-10-11T18:51:45.448Z,12.73
2022-10-11T18:54:18.383Z,12.96
2022-10-11T18:56:49.456Z,11.82
2022-10-11T18:59:17.634Z,10.77
2022-10-11T19:01:46.180Z,11.31
2022-10-11T19:04:18.202Z,12.42
2022-10-11T19:06:49.224Z,12.73
2022-10-11T19:09:25.424Z,11.68
2022-10-11T19:11:56.755Z,10.54
2022-10-11T19:14:29.286Z,10.16
2022-10-11T19:16:58.279Z,11.45
2022-10-11T19:19:28.506Z,12.46
2022-10-11T19:21:57.260Z,12.61
2022-10-11T19:24:28.123Z,11.37
2022-10-11T19:27:02.057Z,10.50
2022-10-11T19:29:31.049Z,11.48
2022-10-11T19:32:01.576Z,12.52
2022-10-11T19:34:31.578Z,12.79
2022-10-11T19:37:01.232Z,11.59
2022-10-11T19:39:29.943Z,10.34
2022-10-11T19:41:58.063Z,10.03
2022-10-11T19:44:26.014Z,11.19
2022-10-11T19:46:54.062Z,12.05
2022-10-11T19:49:25.410Z,12.66
2022-10-11T19:51:55.702Z,12.79
2022-10-11T19:54:24.697Z,11.52
2022-10-11T19:56:52.924Z,10.30
2022-10-11T19:59:21.260Z,9.89
2022-10-11T20:01:53.231Z,11.09
2022-10-11T20:04:47.478Z,12.19
2022-10-11T20:07:10.795Z,12.99
2022-10-11T20:09:38.731Z,12.95
2022-10-11T20:12:07.093Z,11.68
2022-10-11T20:14:35.097Z,10.47
2022-10-11T20:17:03.028Z,9.95
2022-10-11T20:19:31.642Z,11.21
2022-10-11T20:22:00.833Z,12.50
2022-10-11T20:24:33.109Z,12.80
2022-10-11T20:27:06.686Z,11.47
2022-10-11T20:29:35.272Z,10.25
2022-10-11T20:32:03.077Z,9.42
2022-10-11T20:34:31.179Z,9.28
2022-10-11T20:36:59.194Z,10.86
2022-10-11T20:39:27.152Z,12.15
2022-10-11T20:41:55.121Z,12.19
2022-10-11T20:44:23.171Z,10.83
2022-10-11T20:46:51.273Z,9.63
2022-10-11T20:49:20.078Z,9.22
2022-10-11T20:51:48.670Z,10.63
2022-10-11T20:54:16.865Z,11.90
2022-10-11T20:56:44.770Z,12.24
2022-10-11T20:59:12.689Z,10.98
2022-10-11T21:01:40.948Z,9.78
2022-10-11T21:04:19.100Z,9.39
2022-10-11T21:06:48.575Z,10.80
2022-10-11T21:09:17.538Z,11.83
2022-10-11T21:11:46.157Z,12.08
2022-10-11T21:14:16.381Z,10.91
2022-10-11T21:16:44.213Z,9.69
2022-10-11T21:19:15.372Z,9.22
2022-10-11T21:21:50.971Z,10.44
2022-10-11T21:24:21.537Z,11.62
2022-10-11T21:26:49.468Z,11.93
2022-10-11T21:29:17.572Z,10.44
2022-10-11T21:31:45.458Z,9.00
2022-10-11T21:34:13.337Z,8.51
2022-10-11T21:36:41.281Z,9.75
2022-10-11T21:39:09.491Z,10.76
2022-10-11T21:41:37.309Z,11.22
2022-10-11T21:44:05.546Z,11.14
2022-10-11T21:49:23.953Z,8.55
2022-10-11T21:51:51.900Z,8.11
2022-10-11T21:54:20.017Z,9.31
2022-10-11T21:56:47.884Z,10.12
2022-10-11T21:59:15.961Z,10.65
2022-10-11T22:01:44.045Z,11.00
2022-10-11T22:04:12.088Z,10.95
2022-10-11T22:06:40.320Z,9.67
2022-10-11T22:09:09.165Z,8.90
2022-10-11T22:11:37.546Z,9.91
2022-10-11T22:14:06.114Z,10.67
2022-10-11T22:16:34.917Z,10.97
2022-10-11T22:19:03.239Z,11.53
2022-10-11T22:21:31.095Z,11.49
2022-10-11T22:23:58.976Z,10.02
2022-10-11T22:26:32.554Z,9.07
2022-10-11T22:29:00.663Z,9.84
2022-10-11T22:31:29.733Z,10.72
2022-10-11T22:33:59.753Z,11.25
2022-10-11T22:36:30.626Z,11.06
2022-10-11T22:38:59.062Z,9.59
2022-10-11T22:41:26.970Z,8.82
2022-10-11T22:43:54.843Z,9.80
2022-10-11T22:46:22.803Z,10.80
2022-10-11T22:48:50.595Z,11.31
2022-10-11T22:51:18.685Z,11.18
2022-10-11T22:53:46.558Z,9.76
2022-10-11T22:56:14.524Z,8.85
2022-10-11T22:58:42.341Z,9.67
2022-10-11T23:01:13.022Z,10.40
2022-10-11T23:03:40.984Z,10.94
2022-10-11T23:06:09.172Z,10.77
2022-10-11T23:08:36.959Z,9.45
2022-10-11T23:11:07.261Z,8.63
2022-10-11T23:13:35.869Z,9.55
2022-10-11T23:16:09.306Z,10.33
2022-10-11T23:18:37.990Z,10.76
2022-10-11T23:21:07.030Z,10.60
2022-10-11T23:23:35.775Z,9.18
2022-10-11T23:26:15.397Z,8.35
2022-10-11T23:28:44.251Z,9.33
2022-10-11T23:31:17.556Z,10.18
2022-10-11T23:33:46.671Z,10.57
2022-10-11T23:36:24.570Z,10.41
2022-10-11T23:38:56.668Z,8.96
2022-10-11T23:41:26.817Z,8.67
2022-10-11T23:43:55.046Z,9.64
2022-10-11T23:46:23.019Z,10.21
2022-10-11T23:48:51.006Z,10.47
2022-10-11T23:51:18.842Z,10.21
2022-10-11T23:53:46.663Z,8.82
2022-10-11T23:56:14.579Z,8.44
2022-10-11T23:58:42.664Z,9.38
